Site contains unofficial IBTrACS data. Visit the IBTrACS Website to access archived data.

1886 Hurricane NOT_NAMED (1886195N19277)


IBTrACS version v04r00. Visit IBTrACS website for data access.
Please direct all questions to the IBTrACS Q and A forum

Storm track - Intensity - Wind Radii - Intensity Data - Source Data - All data

Summary Information

Storm ID 1886195N19277
Start Jul 14 06Z
Landfall Jul 19 06Z
Max Intensity 75 kt (Jul 20 06Z), 990 mb (Jul 21 18Z)
End Jul 24 18Z
ATCF IDs AL041886
Track status Best track data.

Storm track plot

Map of storm track

Intensity plots

Map of storm track

Radial wind information

No radial wind information for this storm


Position and Intensity Table

BASIN ISO_TIME_________ NATURE LAT LON WMO WIND WMO PRES USA WIND USA PRES MLC WIND MLC PRES
degrees north degrees east kts mb kts mb kts mb
NA 1886-07-14 06:00:00 TS 18.90 -82.90 35 35
NA 09:00:00 TS 19.06 -83.16 37
NA 12:00:00 TS 19.20 -83.40 40 40
NA 15:00:00 TS 19.31 -83.61 40
NA 18:00:00 TS 19.40 -83.80 40 40
NA 21:00:00 TS 19.50 -84.00 42
NA 1886-07-15 00:00:00 TS 19.60 -84.20 45 45
NA 03:00:00 TS 19.70 -84.40 45
NA 06:00:00 TS 19.80 -84.60 45 45
NA 09:00:00 TS 19.90 -84.81 47
NA 12:00:00 TS 20.00 -85.00 50 50
NA 15:00:00 TS 20.10 -85.16 50
NA 18:00:00 TS 20.20 -85.30 50 50
NA 21:00:00 TS 20.30 -85.46 52
NA 1886-07-16 00:00:00 TS 20.40 -85.60 55 55
NA 03:00:00 TS 20.51 -85.71 55
NA 06:00:00 TS 20.60 -85.80 55 55
NA 09:00:00 TS 20.65 -85.92 57
NA 12:00:00 TS 20.70 -86.00 60 60
NA 15:00:00 TS 20.79 -85.98 60
NA 18:00:00 TS 20.90 -85.90 60 60
NA 21:00:00 TS 21.00 -85.81 60
NA 1886-07-17 00:00:00 TS 21.10 -85.70 60 60
NA 03:00:00 TS 21.20 -85.60 60
NA 06:00:00 TS 21.30 -85.50 60 60
NA 09:00:00 TS 21.35 -85.42 62
NA 12:00:00 TS 21.50 -85.30 65 65
NA 15:00:00 TS 21.87 -85.07 65
NA 18:00:00 TS 22.28 -84.62 65 65 65
NA 21:00:00 TS 22.74 -84.35 67 65
NA 1886-07-18 00:00:00 TS 23.24 -84.15 70 70 65
NA 03:00:00 TS 23.73 -84.02 70 65
NA 06:00:00 TS 24.33 -83.93 70 70 65
NA 09:00:00 TS 24.94 -83.80 70 65
NA 12:00:00 TS 25.50 -83.67 70 70 65
NA 15:00:00 TS 25.95 -83.59 70 65
NA 18:00:00 TS 26.40 -83.50 70 70 65
NA 21:00:00 TS 27.02 -83.36 70 65
NA 1886-07-19 00:00:00 TS 27.60 -83.17 70 70 65
NA 01:00:00 TS 27.74 -83.08 70 70 63
NA 03:00:00 TS 28.07 -82.89 63 60
NA 06:00:00 TS 28.60 -82.53 55 55 55
NA 09:00:00 TS 29.09 -82.20 52 52
NA 12:00:00 TS 29.60 -81.63 50 50 50
NA 15:00:00 TS 30.18 -80.63 55 52
NA 18:00:00 TS 30.77 -79.40 60 60 55
NA 21:00:00 TS 31.31 -78.23 65 57
NA 1886-07-20 00:00:00 TS 31.83 -77.00 70 70 60
NA 03:00:00 TS 32.30 -75.71 72 62
NA 06:00:00 TS 32.80 -74.30 75 75 65
NA 09:00:00 TS 33.44 -72.61 75 65
NA 12:00:00 TS 34.07 -71.00 75 75 65
NA 15:00:00 TS 34.53 -69.87 75 67
NA 18:00:00 TS 34.97 -68.83 75 75 70
NA 21:00:00 TS 35.48 -67.47 72 70
NA 1886-07-21 00:00:00 TS 36.00 -66.03 70 70 70
NA 03:00:00 TS 36.48 -64.68 70 70
NA 06:00:00 TS 36.97 -63.40 70 70 70
NA 09:00:00 TS 37.45 -62.22 70 70
NA 12:00:00 TS 37.97 -61.00 70 70 70
NA 15:00:00 TS 38.51 -59.57 70 70
NA 18:00:00 TS 39.17 -58.03 70 990 70 990 70 990
NA 21:00:00 TS 40.02 -56.48 70 70
NA 1886-07-22 00:00:00 TS 40.90 -54.83 70 70 70
NA 03:00:00 TS 41.60 -53.08 70 70
NA 06:00:00 TS 42.23 -51.30 70 70 70
NA 09:00:00 TS 42.90 -49.59 70 70
NA 12:00:00 TS 43.53 -47.87 70 70 70
NA 15:00:00 TS 44.06 -46.05 67 67
NA 18:00:00 TS 44.57 -44.17 65 65 65
NA 21:00:00 TS 45.14 -42.21 62 62
NA 1886-07-23 00:00:00 MX 45.73 -40.17 60 60 60
NA 03:00:00 MX 46.28 -37.98 60 60
NA 06:00:00 MX 46.83 -35.83 60 60 60
NA 09:00:00 MX 47.38 -33.81 60 60
NA 12:00:00 MX 48.00 -32.00 60 60 60
NA 15:00:00 MX 48.68 -30.44 60 60
NA 18:00:00 ET 49.50 -29.00 60 60 60
NA 21:00:00 ET 50.45 -27.40 60 60
NA 1886-07-24 00:00:00 ET 51.50 -25.80 60 60 60
NA 03:00:00 ET 52.62 -24.14 60 60
NA 06:00:00 ET 53.70 -22.70 60 60 60
NA 09:00:00 ET 54.63 -21.72 57 57
NA 12:00:00 ET 55.50 -21.00 55 55 55
NA 15:00:00 ET 56.39 -20.28 52 52
NA 18:00:00 ET 57.30 -19.50 50 50 50

Source Information

Agency Information
USA hurdat2-1851-2019-042820.txt:Line=5221:UNNAMED
TOKYO
CMA
HKO
NEWDELHI
REUNION
BOM
NADI
WELLINGTON
DS824
TD9636
TD9635
NEUMANN
MLC

All available IBTrACS Data

SEASON BASIN SUBBASIN ISO_TIME_________ NATURE LAT LON WMO WIND WMO PRES WMO AGENCY DIST2LAND LANDFALL IFLAG USA AGENCY USA ATCF_ID USA LAT USA LON USA RECORD USA STATUS USA WIND USA PRES USA SSHS MLC LAT MLC LON MLC CLASS MLC WIND MLC PRES STORM SPEED STORM DIR
Year degrees north degrees east kts mb km km degrees north degrees east kts mb 1 degrees north degrees east kts mb kts degrees
1886 NA CS 1886-07-14 06:00:00 TS 18.90 -82.90 35 hurdat_atl 279 259 O_____________ hurdat_atl AL041886 18.90 -82.90 TS 35 0 6 303
1886 NA CS 09:00:00 TS 19.06 -83.16 260 251 P_____________ AL041886 19.06 -83.16 TS 37 0 6 302
1886 NA CS 12:00:00 TS 19.20 -83.40 40 hurdat_atl 253 245 O_____________ hurdat_atl AL041886 19.20 -83.40 TS 40 0 5 300
1886 NA CS 15:00:00 TS 19.31 -83.61 249 242 P_____________ AL041886 19.31 -83.61 TS 40 0 4 298
1886 NA CS 18:00:00 TS 19.40 -83.80 40 hurdat_atl 246 241 O_____________ hurdat_atl AL041886 19.40 -83.80 TS 40 0 4 297
1886 NA CS 21:00:00 TS 19.50 -84.00 246 241 P_____________ AL041886 19.50 -84.00 TS 42 0 4 298
1886 NA CS 1886-07-15 00:00:00 TS 19.60 -84.20 45 hurdat_atl 246 235 O_____________ hurdat_atl AL041886 19.60 -84.20 TS 45 0 4 298
1886 NA CS 03:00:00 TS 19.70 -84.40 235 223 P_____________ AL041886 19.70 -84.40 TS 45 0 4 298
1886 NA CS 06:00:00 TS 19.80 -84.60 45 hurdat_atl 223 212 O_____________ hurdat_atl AL041886 19.80 -84.60 TS 45 0 4 297
1886 NA CS 09:00:00 TS 19.90 -84.81 212 201 P_____________ AL041886 19.90 -84.81 TS 47 0 4 298
1886 NA CS 12:00:00 TS 20.00 -85.00 50 hurdat_atl 202 192 O_____________ hurdat_atl AL041886 20.00 -85.00 TS 50 0 4 301
1886 NA CS 15:00:00 TS 20.10 -85.16 192 177 P_____________ AL041886 20.10 -85.16 TS 50 0 3 305
1886 NA CS 18:00:00 TS 20.20 -85.30 50 hurdat_atl 177 162 O_____________ hurdat_atl AL041886 20.20 -85.30 TS 50 0 3 305
1886 NA CS 21:00:00 TS 20.30 -85.46 153 138 P_____________ AL041886 20.30 -85.46 TS 52 0 3 305
1886 NA CS 1886-07-16 00:00:00 TS 20.40 -85.60 55 hurdat_atl 138 123 O_____________ hurdat_atl AL041886 20.40 -85.60 TS 55 0 3 312
1886 NA CS 03:00:00 TS 20.51 -85.71 123 108 P_____________ AL041886 20.51 -85.71 TS 55 0 3 317
1886 NA CS 06:00:00 TS 20.60 -85.80 55 hurdat_atl 108 100 O_____________ hurdat_atl AL041886 20.60 -85.80 TS 55 0 2 305
1886 NA CS 09:00:00 TS 20.65 -85.92 94 85 P_____________ AL041886 20.65 -85.92 TS 57 0 2 299
1886 NA CS 12:00:00 TS 20.70 -86.00 60 hurdat_atl 85 80 O_____________ hurdat_atl AL041886 20.70 -86.00 TS 60 0 2 338
1886 NA CS 15:00:00 TS 20.79 -85.98 80 80 P_____________ AL041886 20.79 -85.98 TS 60 0 2 27
1886 NA CS 18:00:00 TS 20.90 -85.90 60 hurdat_atl 85 83 O_____________ hurdat_atl AL041886 20.90 -85.90 TS 60 0 3 39
1886 NA CS 21:00:00 TS 21.00 -85.81 94 93 P_____________ AL041886 21.00 -85.81 TS 60 0 3 43
1886 NA CS 1886-07-17 00:00:00 TS 21.10 -85.70 60 hurdat_atl 103 99 O_____________ hurdat_atl AL041886 21.10 -85.70 TS 60 0 3 44
1886 NA CS 03:00:00 TS 21.20 -85.60 99 84 P_____________ AL041886 21.20 -85.60 TS 60 0 3 43
1886 NA CS 06:00:00 TS 21.30 -85.50 60 hurdat_atl 84 78 O_____________ hurdat_atl AL041886 21.30 -85.50 TS 60 0 2 49
1886 NA CS 09:00:00 TS 21.35 -85.42 78 54 P_____________ AL041886 21.35 -85.42 TS 62 0 3 43
1886 NA CS 12:00:00 TS 21.50 -85.30 65 hurdat_atl 54 15 O_____________ hurdat_atl AL041886 21.50 -85.30 HU 65 1 6 33
1886 NA CS 15:00:00 TS 21.87 -85.07 10 0 P_____________ AL041886 21.87 -85.07 HU 65 1 10 39
1886 NA GM 18:00:00 TS 22.28 -84.62 65 hurdat_atl 20 15 O____________O hurdat_atl AL041886 22.40 -84.80 HU 65 1 21.30 -83.20 HU 65 11 37
1886 NA GM 21:00:00 TS 22.74 -84.35 23 23 P____________P AL041886 23.01 -84.60 HU 67 1 21.64 -83.32 HU 65 11 24
1886 NA GM 1886-07-18 00:00:00 TS 23.24 -84.15 70 hurdat_atl 59 59 O____________O hurdat_atl AL041886 23.70 -84.40 HU 70 1 22.00 -83.50 HU 65 10 17
1886 NA GM 03:00:00 TS 23.73 -84.02 105 105 P____________P AL041886 24.39 -84.15 HU 70 1 22.40 -83.77 HU 65 11 10
1886 NA GM 06:00:00 TS 24.33 -83.93 70 hurdat_atl 164 164 O____________O hurdat_atl AL041886 25.10 -83.90 HU 70 1 22.80 -84.00 HU 65 12 10
1886 NA GM 09:00:00 TS 24.94 -83.80 227 201 P____________P AL041886 25.82 -83.68 HU 70 1 23.17 -84.05 HU 65 12 12
1886 NA GM 12:00:00 TS 25.50 -83.67 70 hurdat_atl 201 163 O____________O hurdat_atl AL041886 26.50 -83.50 HU 70 1 23.50 -84.00 HU 65 10 11
1886 NA GM 15:00:00 TS 25.95 -83.59 163 127 P____________P AL041886 27.07 -83.41 HU 70 1 23.70 -83.95 HU 65 9 9
1886 NA GM 18:00:00 TS 26.40 -83.50 70 hurdat_atl 127 85 O____________O hurdat_atl AL041886 27.60 -83.30 HU 70 1 24.00 -83.90 HU 65 11 11
1886 NA GM 21:00:00 TS 27.02 -83.36 85 44 P____________P AL041886 28.22 -83.08 HU 70 1 24.63 -83.93 HU 65 12 14
1886 NA GM 1886-07-19 00:00:00 TS 27.60 -83.17 70 hurdat_atl 44 29 O____________O hurdat_atl AL041886 28.70 -82.80 HU 70 1 25.40 -83.90 HU 65 12 19
1886 NA GM 01:00:00 TS 27.74 -83.08 70 hurdat_atl 29 9 O____________P hurdat_atl AL041886 28.80 -82.70 L HU 70 1 25.63 -83.85 HU 63 11 28
1886 NA GM 03:00:00 TS 28.07 -82.89 9 0 P____________P AL041886 29.05 -82.49 HU 63 0 26.10 -83.69 HU 60 12 30
1886 NA NA 06:00:00 TS 28.60 -82.53 55 hurdat_atl 0 0 O____________O hurdat_atl AL041886 29.50 -82.10 TS 55 0 26.80 -83.40 TS 55 12 31
1886 NA NA 09:00:00 TS 29.09 -82.20 0 0 P____________P AL041886 29.88 -81.67 TS 52 0 27.51 -83.25 TS 52 13 38
1886 NA NA 12:00:00 TS 29.60 -81.63 50 hurdat_atl 0 0 O____________O hurdat_atl AL041886 30.30 -81.00 TS 50 0 28.20 -82.90 TS 50 17 51
1886 NA NA 15:00:00 TS 30.18 -80.63 77 77 P____________P AL041886 30.81 -79.94 TS 55 0 28.91 -82.01 TS 52 23 59
1886 NA NA 18:00:00 TS 30.77 -79.40 60 hurdat_atl 187 187 O____________O hurdat_atl AL041886 31.40 -78.60 TS 60 0 29.50 -81.00 TS 55 24 61
1886 NA NA 21:00:00 TS 31.31 -78.23 220 216 P____________P AL041886 32.04 -77.14 TS 65 1 29.86 -80.41 TS 57 23 63
1886 NA NA 1886-07-20 00:00:00 TS 31.83 -77.00 70 hurdat_atl 252 244 O____________O hurdat_atl AL041886 32.70 -75.60 HU 70 1 30.10 -79.80 TS 60 24 65
1886 NA NA 03:00:00 TS 32.30 -75.71 277 269 P____________P AL041886 33.31 -74.07 HU 72 1 30.27 -79.00 TS 62 25 67
1886 NA NA 06:00:00 TS 32.80 -74.30 75 hurdat_atl 293 293 O____________O hurdat_atl AL041886 33.90 -72.60 HU 75 1 30.60 -77.70 HU 65 28 66
1886 NA NA 09:00:00 TS 33.44 -72.61 374 374 P____________P AL041886 34.48 -71.22 HU 75 1 31.37 -75.39 HU 65 30 65
1886 NA NA 12:00:00 TS 34.07 -71.00 75 hurdat_atl 450 450 O____________O hurdat_atl AL041886 35.00 -70.00 HU 75 1 32.20 -73.00 HU 65 25 64
1886 NA NA 15:00:00 TS 34.53 -69.87 528 528 P____________P AL041886 35.40 -69.00 HU 75 1 32.78 -71.62 HU 67 20 63
1886 NA NA 18:00:00 TS 34.97 -68.83 75 hurdat_atl 612 612 O____________O hurdat_atl AL041886 35.80 -68.00 HU 75 1 33.30 -70.50 HU 70 22 64
1886 NA NA 21:00:00 TS 35.48 -67.47 721 716 P____________P AL041886 36.29 -66.70 HU 72 1 33.85 -69.00 HU 70 25 66
1886 NA NA 1886-07-21 00:00:00 TS 36.00 -66.03 70 hurdat_atl 722 716 O____________O hurdat_atl AL041886 36.80 -65.30 HU 70 1 34.40 -67.50 HU 70 25 66
1886 NA NA 03:00:00 TS 36.48 -64.68 736 736 P____________P AL041886 37.25 -63.94 HU 70 1 34.96 -66.17 HU 70 23 65
1886 NA NA 06:00:00 TS 36.97 -63.40 70 hurdat_atl 740 721 O____________O hurdat_atl AL041886 37.70 -62.60 HU 70 1 35.50 -65.00 HU 70 22 64
1886 NA NA 09:00:00 TS 37.45 -62.22 727 710 P____________P AL041886 38.18 -61.33 HU 70 1 35.97 -64.01 HU 70 21 62
1886 NA NA 12:00:00 TS 37.97 -61.00 70 hurdat_atl 710 709 O____________O hurdat_atl AL041886 38.70 -60.00 HU 70 1 36.50 -63.00 HU 70 23 63
1886 NA NA 15:00:00 TS 38.51 -59.57 731 718 P____________P AL041886 39.20 -58.51 HU 70 1 37.12 -61.71 HU 70 26 63
1886 NA NA 18:00:00 TS 39.17 -58.03 70 990 hurdat_atl 714 684 O____________O hurdat_atl AL041886 39.80 -56.90 HU 70 990 1 37.90 -60.30 HU 70 990 28 58
1886 NA NA 21:00:00 TS 40.02 -56.48 689 642 P____________P AL041886 40.56 -55.24 HU 70 1 38.94 -58.94 HU 70 30 55
1886 NA NA 1886-07-22 00:00:00 TS 40.90 -54.83 70 hurdat_atl 640 555 O____________O hurdat_atl AL041886 41.40 -53.50 HU 70 1 39.90 -57.50 HU 70 30 58
1886 NA NA 03:00:00 TS 41.60 -53.08 555 507 P____________P AL041886 42.22 -51.66 HU 70 1 40.35 -55.93 HU 70 30 63
1886 NA NA 06:00:00 TS 42.23 -51.30 70 hurdat_atl 511 491 O____________O hurdat_atl AL041886 43.00 -49.80 HU 70 1 40.70 -54.30 HU 70 29 63
1886 NA NA 09:00:00 TS 42.90 -49.59 499 499 P____________P AL041886 43.71 -48.01 HU 70 1 41.29 -52.76 HU 70 28 63
1886 NA NA 12:00:00 TS 43.53 -47.87 70 hurdat_atl 538 537 O____________O hurdat_atl AL041886 44.30 -46.30 HU 70 1 42.00 -51.00 HU 70 28 66
1886 NA NA 15:00:00 TS 44.06 -46.05 614 614 P____________P AL041886 44.72 -44.70 HU 67 1 42.74 -48.76 HU 67 28 69
1886 NA NA 18:00:00 TS 44.57 -44.17 65 hurdat_atl 720 720 O____________O hurdat_atl AL041886 45.10 -43.10 HU 65 1 43.50 -46.30 HU 65 29 68
1886 NA NA 21:00:00 TS 45.14 -42.21 838 838 P____________P AL041886 45.59 -41.35 HU 62 0 44.24 -43.93 HU 62 30 68
1886 NA NA 1886-07-23 00:00:00 MX 45.73 -40.17 60 hurdat_atl 963 963 O____________O hurdat_atl AL041886 46.10 -39.50 EX 60 -4 45.00 -41.50 TS 60 32 69
1886 NA NA 03:00:00 MX 46.28 -37.98 1110 1110 P____________P AL041886 46.55 -37.55 EX 60 -4 45.75 -38.86 TS 60 32 70
1886 NA NA 06:00:00 MX 46.83 -35.83 60 hurdat_atl 1264 1264 O____________O hurdat_atl AL041886 47.00 -35.60 EX 60 -4 46.50 -36.30 TS 60 30 69
1886 NA NA 09:00:00 MX 47.38 -33.81 1404 1404 P____________P AL041886 47.45 -33.73 EX 60 -4 47.25 -33.98 TS 60 28 66
1886 NA NA 12:00:00 MX 48.00 -32.00 60 hurdat_atl 1517 1459 O____________O hurdat_atl AL041886 48.00 -32.00 EX 60 -4 48.00 -32.00 TS 60 26 60
1886 NA NA 15:00:00 MX 48.68 -30.44 1448 1328 P____________P AL041886 48.67 -30.46 EX 60 -4 48.71 -30.40 TS 60 25 53
1886 NA NA 18:00:00 ET 49.50 -29.00 60 hurdat_atl 1321 1189 O____________O hurdat_atl AL041886 49.50 -29.00 EX 60 -4 49.50 -29.00 EX 60 26 48
1886 NA NA 21:00:00 ET 50.45 -27.40 1182 1055 P____________P AL041886 50.45 -27.40 EX 60 -4 50.45 -27.40 EX 60 28 46
1886 NA NA 1886-07-24 00:00:00 ET 51.50 -25.80 60 hurdat_atl 1046 925 O____________O hurdat_atl AL041886 51.50 -25.80 EX 60 -4 51.50 -25.80 EX 60 30 43
1886 NA NA 03:00:00 ET 52.62 -24.14 919 828 P____________P AL041886 52.62 -24.14 EX 60 -4 52.62 -24.14 EX 60 29 41
1886 NA NA 06:00:00 ET 53.70 -22.70 60 hurdat_atl 820 753 O____________O hurdat_atl AL041886 53.70 -22.70 EX 60 -4 53.70 -22.70 EX 60 25 36
1886 NA NA 09:00:00 ET 54.63 -21.72 747 707 P____________P AL041886 54.63 -21.72 EX 57 -4 54.63 -21.72 EX 57 20 29
1886 NA NA 12:00:00 ET 55.50 -21.00 55 hurdat_atl 707 682 O____________O hurdat_atl AL041886 55.50 -21.00 EX 55 -4 55.50 -21.00 EX 55 19 25
1886 NA NA 15:00:00 ET 56.39 -20.28 685 672 P____________P AL041886 56.39 -20.28 EX 52 -4 56.39 -20.28 EX 52 20 25
1886 NA NA 18:00:00 ET 57.30 -19.50 50 hurdat_atl 676 O____________O hurdat_atl AL041886 57.30 -19.50 EX 50 -4 57.30 -19.50 EX 50 20 25